Time;durP1;ratioP1;P1;durP2;ratioP2;P2;SDS_P1;SDS_P2;PMS_P1;PMS_P2;Temp;Humidity;BMP_temperature;BMP_pressure;BME280_temperature;BME280_humidity;BME280_pressure;Samples;Min_cycle;Max_cycle;Signal;HPM_P1;HPM_P2
2020/12/07 00:01:03;;;;;;;2.33;2.22;;;;;;;2.71;100.00;99214.09;4427590;32;20681;-70
2020/12/07 00:03:29;;;;;;;1.75;1.73;;;;;;;2.72;100.00;99214.91;4423158;32;20570;-69
2020/12/07 00:05:54;;;;;;;1.73;1.73;;;;;;;2.74;100.00;99215.53;4415443;32;20073;-70
2020/12/07 00:08:19;;;;;;;2.00;1.90;;;;;;;2.75;100.00;99210.06;4409047;32;20061;-69
2020/12/07 00:10:45;;;;;;;2.05;1.95;;;;;;;2.71;100.00;99194.78;4432410;32;20077;-71
2020/12/07 00:13:10;;;;;;;1.55;1.55;;;;;;;2.79;100.00;99206.03;4417970;32;20343;-70
2020/12/07 00:15:36;;;;;;;1.65;1.65;;;;;;;2.74;100.00;99197.88;4425338;32;20072;-70
2020/12/07 00:18:01;;;;;;;2.17;2.08;;;;;;;2.74;100.00;99192.59;4422834;32;20069;-70
2020/12/07 00:20:26;;;;;;;1.50;1.50;;;;;;;2.71;100.00;99193.00;4403996;32;20077;-69
2020/12/07 00:22:52;;;;;;;1.60;1.60;;;;;;;2.76;100.00;99193.22;4417933;32;20672;-71
2020/12/07 00:25:17;;;;;;;3.00;2.90;;;;;;;2.73;100.00;99203.34;4409993;32;20081;-69
2020/12/07 00:27:42;;;;;;;1.60;1.60;;;;;;;2.67;100.00;99202.28;4418911;32;20899;-70
2020/12/07 00:30:08;;;;;;;1.70;1.70;;;;;;;2.71;100.00;99213.28;4429336;32;20097;-70
2020/12/07 00:32:33;;;;;;;1.60;1.60;;;;;;;2.76;100.00;99221.44;4412819;32;20084;-69
2020/12/07 00:34:59;;;;;;;1.80;1.80;;;;;;;2.70;100.00;99228.31;4421986;32;20457;-70
2020/12/07 00:37:24;;;;;;;1.70;1.70;;;;;;;2.74;100.00;99224.28;4419391;32;20440;-70
2020/12/07 00:39:50;;;;;;;1.60;1.60;;;;;;;2.74;100.00;99211.09;4421634;32;20100;-69
2020/12/07 00:42:15;;;;;;;1.60;1.60;;;;;;;2.72;100.00;99210.44;4415026;32;20679;-70
2020/12/07 00:44:41;;;;;;;1.70;1.70;;;;;;;2.63;100.00;99214.25;4427859;32;20060;-69
2020/12/07 00:47:07;;;;;;;1.60;1.60;;;;;;;2.63;100.00;99216.91;4414988;32;20483;-69
2020/12/07 00:49:32;;;;;;;1.77;1.75;;;;;;;2.65;100.00;99206.94;4406827;32;20337;-70
2020/12/07 00:51:58;;;;;;;1.60;1.60;;;;;;;2.66;100.00;99202.47;4406743;32;20417;-70
2020/12/07 00:54:23;;;;;;;2.42;2.33;;;;;;;2.62;100.00;99197.59;4418101;32;20073;-70
2020/12/07 00:56:55;;;;;;;1.80;1.80;;;;;;;2.52;100.00;99191.84;4402549;32;20085;-70
2020/12/07 00:59:21;;;;;;;1.80;1.80;;;;;;;2.57;100.00;99197.38;4399490;32;20075;-69
2020/12/07 01:01:47;;;;;;;1.87;1.80;;;;;;;2.59;100.00;99192.72;4407595;32;20081;-69
2020/12/07 01:04:12;;;;;;;1.60;1.60;;;;;;;2.58;100.00;99182.34;4411065;32;20092;-69
2020/12/07 01:06:38;;;;;;;1.80;1.80;;;;;;;2.58;100.00;99179.69;4407555;32;20088;-69
2020/12/07 01:09:03;;;;;;;2.62;2.45;;;;;;;2.52;100.00;99170.75;4405200;32;20093;-70
2020/12/07 01:11:28;;;;;;;2.05;1.95;;;;;;;2.47;100.00;99167.88;4404956;32;20882;-69
2020/12/07 01:13:54;;;;;;;1.80;1.80;;;;;;;2.55;100.00;99182.72;4399325;32;20535;-69
2020/12/07 01:16:22;;;;;;;1.60;1.60;;;;;;;2.52;100.00;99220.88;4409541;32;20072;-70
2020/12/07 01:18:48;;;;;;;1.77;1.77;;;;;;;2.49;100.00;99194.88;4413353;32;20430;-69
2020/12/07 01:21:14;;;;;;;1.55;1.55;;;;;;;2.53;100.00;99193.47;4409908;32;20701;-70
2020/12/07 01:23:40;;;;;;;1.85;1.83;;;;;;;2.54;100.00;99183.75;4390097;32;20118;-69
2020/12/07 01:26:09;;;;;;;2.25;2.15;;;;;;;2.57;100.00;99184.19;4403575;32;20458;-70
2020/12/07 01:28:34;;;;;;;1.70;1.70;;;;;;;2.59;100.00;99192.72;4404179;32;20560;-70
2020/12/07 01:31:00;;;;;;;1.70;1.70;;;;;;;2.61;100.00;99189.88;4414841;32;20088;-70
2020/12/07 01:33:25;;;;;;;1.70;1.70;;;;;;;2.56;100.00;99182.53;4407039;32;20093;-69
2020/12/07 01:35:51;;;;;;;1.95;1.92;;;;;;;2.56;100.00;99179.09;4407943;32;20068;-69
2020/12/07 01:38:16;;;;;;;1.50;1.50;;;;;;;2.58;100.00;99166.50;4392660;32;20074;-70
2020/12/07 01:40:42;;;;;;;1.70;1.70;;;;;;;2.53;100.00;99163.63;4404562;32;20579;-70
2020/12/07 01:43:07;;;;;;;1.60;1.60;;;;;;;2.37;100.00;99154.19;4403089;32;20567;-70
2020/12/07 01:45:33;;;;;;;2.40;2.30;;;;;;;2.57;100.00;99170.97;4390917;32;20065;-70
2020/12/07 01:47:58;;;;;;;1.70;1.70;;;;;;;2.56;100.00;99171.16;4397202;32;20080;-69
2020/12/07 01:50:23;;;;;;;2.20;2.12;;;;;;;2.60;100.00;99175.88;4398721;32;20646;-69
2020/12/07 01:52:49;;;;;;;1.83;1.83;;;;;;;2.58;100.00;99172.59;4422649;32;20145;-70
2020/12/07 01:55:14;;;;;;;1.55;1.55;;;;;;;2.50;100.00;99170.13;4422885;32;20362;-70
2020/12/07 01:57:40;;;;;;;1.70;1.70;;;;;;;2.53;100.00;99168.91;4431494;32;20573;-70
2020/12/07 02:00:06;;;;;;;1.65;1.65;;;;;;;2.54;100.00;99160.81;4404483;32;20598;-69
2020/12/07 02:02:31;;;;;;;1.70;1.70;;;;;;;2.58;100.00;99156.75;4407288;32;20064;-70
2020/12/07 02:04:57;;;;;;;1.50;1.50;;;;;;;2.57;100.00;99147.22;4409512;32;20173;-70
2020/12/07 02:07:22;;;;;;;2.10;2.00;;;;;;;2.54;100.00;99147.59;4409294;32;20079;-70
2020/12/07 02:09:47;;;;;;;1.60;1.60;;;;;;;2.55;100.00;99146.59;4431874;32;20080;-70
2020/12/07 02:12:13;;;;;;;2.00;1.90;;;;;;;2.56;100.00;99145.59;4411133;32;20581;-69
2020/12/07 02:24:43;;;;;;;1.87;1.85;;;;;;;2.61;100.00;99152.94;4426841;32;20074;-70
2020/12/07 02:27:09;;;;;;;3.72;3.58;;;;;;;2.54;100.00;99144.97;4425993;32;20072;-69
2020/12/07 02:29:34;;;;;;;2.20;2.10;;;;;;;2.55;100.00;99166.88;4417977;32;20340;-70
2020/12/07 02:32:18;;;;;;;1.60;1.60;;;;;;;2.58;100.00;99145.38;4424464;32;20076;-69
2020/12/07 02:34:44;;;;;;;1.60;1.60;;;;;;;2.62;100.00;99136.91;4412790;32;20064;-69
2020/12/07 02:37:09;;;;;;;2.10;2.05;;;;;;;2.60;100.00;99146.84;4419275;32;20087;-69
2020/12/07 02:39:35;;;;;;;2.15;2.05;;;;;;;2.56;100.00;99148.22;4417917;32;20900;-70
2020/12/07 02:42:02;;;;;;;2.00;1.90;;;;;;;2.58;100.00;99140.91;4420317;32;20077;-70
2020/12/07 02:44:28;;;;;;;2.10;2.00;;;;;;;2.55;100.00;99130.78;4413204;32;20086;-70
2020/12/07 02:46:53;;;;;;;1.90;1.80;;;;;;;2.49;100.00;99130.72;4414209;32;20069;-70
2020/12/07 02:49:18;;;;;;;1.62;1.62;;;;;;;2.50;100.00;99125.25;4416656;32;20077;-70
2020/12/07 02:51:44;;;;;;;2.15;2.05;;;;;;;2.49;100.00;99120.97;4419980;32;20210;-70
2020/12/07 02:54:09;;;;;;;1.87;1.80;;;;;;;2.47;100.00;99116.87;4420355;32;20583;-69
2020/12/07 02:56:34;;;;;;;1.60;1.60;;;;;;;2.49;100.00;99120.97;4417298;32;20068;-71
2020/12/07 02:59:00;;;;;;;1.60;1.60;;;;;;;2.52;100.00;99119.75;4404928;32;20085;-70
2020/12/07 03:01:25;;;;;;;4.00;1.98;;;;;;;2.47;100.00;99128.28;4412182;32;20700;-70
2020/12/07 03:03:51;;;;;;;1.60;1.60;;;;;;;2.54;100.00;99131.78;4403723;32;20096;-70
2020/12/07 03:06:16;;;;;;;1.80;1.70;;;;;;;2.42;100.00;99138.59;4419838;32;20134;-70
2020/12/07 03:08:41;;;;;;;1.90;1.80;;;;;;;2.46;100.00;99136.38;4431517;32;20075;-70
2020/12/07 03:11:07;;;;;;;2.28;2.17;;;;;;;2.45;100.00;99140.88;4421932;32;20065;-71
2020/12/07 03:13:32;;;;;;;2.08;1.98;;;;;;;2.45;100.00;99146.13;4417595;32;20061;-70
2020/12/07 03:15:58;;;;;;;2.53;2.42;;;;;;;2.46;100.00;99144.31;4414281;32;20547;-70
2020/12/07 03:18:23;;;;;;;2.03;1.92;;;;;;;2.42;100.00;99154.44;4412405;32;20620;-70
2020/12/07 03:20:48;;;;;;;2.40;2.20;;;;;;;2.41;100.00;99156.25;4419607;32;20112;-71
2020/12/07 03:23:14;;;;;;;1.98;1.87;;;;;;;2.42;100.00;99152.59;4413303;32;20069;-70
2020/12/07 03:25:39;;;;;;;1.70;1.70;;;;;;;2.39;100.00;99144.25;4419286;32;20529;-70
2020/12/07 03:28:04;;;;;;;2.10;2.00;;;;;;;2.37;100.00;99133.09;4417235;32;20073;-71
2020/12/07 03:30:30;;;;;;;1.62;1.62;;;;;;;2.38;100.00;99137.34;4405578;32;20076;-70
2020/12/07 03:32:55;;;;;;;1.75;1.73;;;;;;;2.39;100.00;99138.97;4416124;32;20466;-70
2020/12/07 03:35:21;;;;;;;1.70;1.70;;;;;;;2.31;100.00;99145.25;4411287;32;20077;-71
2020/12/07 03:37:46;;;;;;;2.20;2.10;;;;;;;1.75;100.00;99053.75;4414444;32;20064;-70
2020/12/07 03:40:11;;;;;;;1.80;1.80;;;;;;;2.30;100.00;99148.06;4416687;32;20381;-70
2020/12/07 03:42:37;;;;;;;1.70;1.70;;;;;;;2.29;100.00;99147.22;4404791;32;20091;-71
2020/12/07 03:45:03;;;;;;;1.60;1.60;;;;;;;2.32;100.00;99154.78;4413874;32;20076;-70
2020/12/07 03:47:28;;;;;;;2.03;1.92;;;;;;;2.36;100.00;99144.62;4415308;32;20521;-71
2020/12/07 03:49:53;;;;;;;2.22;2.03;;;;;;;2.35;100.00;99149.13;4413796;32;20234;-70
2020/12/07 03:52:19;;;;;;;1.60;1.60;;;;;;;2.36;100.00;99147.28;4403366;32;20108;-70
2020/12/07 03:54:44;;;;;;;1.80;1.70;;;;;;;2.30;100.00;99153.34;4423369;32;20076;-71
2020/12/07 03:57:09;;;;;;;11.10;2.53;;;;;;;2.35;100.00;99146.47;4425787;32;20069;-71
2020/12/07 03:59:35;;;;;;;1.60;1.60;;;;;;;2.40;100.00;99152.00;4421263;32;20547;-70
2020/12/07 04:02:01;;;;;;;1.77;1.77;;;;;;;2.40;100.00;99152.00;4410679;32;20080;-71
2020/12/07 04:04:34;;;;;;;1.60;1.60;;;;;;;2.42;100.00;99146.53;4418503;32;20064;-70
2020/12/07 04:06:59;;;;;;;1.58;1.58;;;;;;;2.38;100.00;99146.09;4398919;32;20138;-71
2020/12/07 04:09:25;;;;;;;2.10;2.00;;;;;;;2.36;100.00;99142.00;4413463;32;20066;-70
2020/12/07 04:11:50;;;;;;;1.75;1.70;;;;;;;2.28;100.00;99134.22;4428903;32;20085;-69
2020/12/07 04:14:15;;;;;;;2.37;2.25;;;;;;;2.35;100.00;99161.50;4415104;32;20065;-70
2020/12/07 04:16:41;;;;;;;1.80;1.80;;;;;;;2.39;100.00;99147.72;4412714;32;20088;-69
2020/12/07 04:19:06;;;;;;;1.95;1.87;;;;;;;2.44;100.00;99147.94;4396119;32;20089;-70
2020/12/07 04:21:32;;;;;;;1.70;1.70;;;;;;;2.43;100.00;99151.59;4384711;32;20065;-69
2020/12/07 04:23:57;;;;;;;1.70;1.70;;;;;;;2.46;100.00;99145.13;4381926;32;20083;-70
2020/12/07 04:26:22;;;;;;;1.90;1.80;;;;;;;2.46;100.00;99142.47;4395983;32;20087;-71
2020/12/07 04:28:49;;;;;;;1.95;1.85;;;;;;;2.50;100.00;99132.34;4400536;32;20092;-69
2020/12/07 04:31:15;;;;;;;1.60;1.60;;;;;;;2.47;100.00;99133.56;4417528;32;20105;-71
2020/12/07 04:33:40;;;;;;;1.67;1.67;;;;;;;2.50;100.00;99133.19;4416998;32;20505;-70
2020/12/07 04:36:06;;;;;;;1.77;1.77;;;;;;;2.47;100.00;99123.00;4411398;32;20346;-70
2020/12/07 04:38:32;;;;;;;1.65;1.65;;;;;;;2.52;100.00;99120.59;4417309;32;20127;-70
2020/12/07 04:40:57;;;;;;;1.90;1.80;;;;;;;2.46;100.00;99124.00;4410211;32;20200;-70
2020/12/07 04:43:23;;;;;;;1.60;1.60;;;;;;;2.45;100.00;99119.75;4406919;32;20071;-69
2020/12/07 04:45:48;;;;;;;2.58;2.47;;;;;;;2.38;100.00;99108.31;4422431;32;20460;-70
2020/12/07 04:48:14;;;;;;;1.80;1.80;;;;;;;2.42;100.00;99131.50;4417672;32;20661;-70
2020/12/07 04:50:39;;;;;;;2.03;1.92;;;;;;;2.40;100.00;99143.25;4421456;32;20088;-70
2020/12/07 04:53:04;;;;;;;1.52;1.52;;;;;;;2.44;100.00;99144.50;4416095;32;20087;-70
2020/12/07 04:55:30;;;;;;;1.80;1.80;;;;;;;2.43;100.00;99143.69;4420761;32;20065;-71
2020/12/07 04:57:55;;;;;;;1.55;1.55;;;;;;;2.45;100.00;99140.88;4424815;32;20448;-71
2020/12/07 05:00:24;;;;;;;2.00;1.90;;;;;;;2.45;100.00;99154.06;4428592;32;20087;-69
2020/12/07 05:02:51;;;;;;;2.45;1.92;;;;;;;2.43;100.00;99161.31;4399576;32;20126;-69
2020/12/07 05:05:17;;;;;;;1.60;1.60;;;;;;;2.46;100.00;99160.16;4429331;32;20098;-70
2020/12/07 05:07:46;;;;;;;1.60;1.60;;;;;;;2.45;100.00;99161.97;4418278;32;20171;-70
2020/12/07 05:10:14;;;;;;;1.65;1.65;;;;;;;2.49;100.00;99160.56;4417797;32;20079;-70
2020/12/07 05:12:44;;;;;;;1.80;1.77;;;;;;;2.49;100.00;99155.28;4418134;32;20087;-70
2020/12/07 05:15:12;;;;;;;1.60;1.60;;;;;;;2.48;100.00;99145.72;4417681;32;20098;-68
2020/12/07 05:17:38;;;;;;;2.42;2.28;;;;;;;2.50;100.00;99143.72;4418816;32;20439;-71
2020/12/07 05:20:06;;;;;;;1.65;1.65;;;;;;;2.48;100.00;99147.56;4409555;32;20083;-70
2020/12/07 05:22:34;;;;;;;1.52;1.52;;;;;;;2.49;100.00;99154.47;4421876;32;20089;-71
2020/12/07 05:25:02;;;;;;;2.15;2.05;;;;;;;2.47;100.00;99152.03;4431194;32;20071;-70
2020/12/07 05:27:28;;;;;;;1.67;1.67;;;;;;;2.48;100.00;99145.72;4420891;32;20072;-69
2020/12/07 05:32:37;;;;;;;;;;;;;;;2.42;100.00;99152.59;4415675;32;20076;-68
2020/12/07 05:35:03;;;;;;;1.65;1.65;;;;;;;2.41;100.00;99158.06;4416962;32;20041;-73
2020/12/07 05:37:33;;;;;;;2.90;2.20;;;;;;;2.39;100.00;99152.97;4418085;32;20530;-70
2020/12/07 05:40:00;;;;;;;1.60;1.60;;;;;;;2.11;100.00;99118.72;4400301;32;20086;-70
2020/12/07 05:42:25;;;;;;;2.10;2.00;;;;;;;2.36;100.00;99157.84;4420582;32;20138;-70
2020/12/07 05:44:51;;;;;;;1.60;1.60;;;;;;;2.32;100.00;99156.59;4413562;32;20185;-71
2020/12/07 05:47:17;;;;;;;1.50;1.50;;;;;;;2.38;100.00;99161.09;4426704;32;20495;-71
2020/12/07 05:49:43;;;;;;;1.70;1.70;;;;;;;2.34;100.00;99165.13;4418752;32;20076;-70
2020/12/07 05:52:09;;;;;;;1.55;1.55;;;;;;;2.34;100.00;99167.78;4430864;32;20148;-69
2020/12/07 05:54:34;;;;;;;2.25;2.15;;;;;;;2.29;100.00;99170.19;4400715;32;20610;-70
2020/12/07 05:57:07;;;;;;;2.00;1.90;;;;;;;2.34;100.00;99165.94;4420824;32;20052;-71
2020/12/07 05:59:32;;;;;;;2.42;2.22;;;;;;;2.21;100.00;99148.22;4419119;32;20069;-70
2020/12/07 06:01:58;;;;;;;2.20;2.10;;;;;;;2.35;100.00;99161.50;4392882;32;20119;-70
2020/12/07 06:04:24;;;;;;;2.00;1.90;;;;;;;2.37;100.00;99164.75;4412827;32;20084;-70
2020/12/07 06:06:50;;;;;;;1.60;1.60;;;;;;;2.37;100.00;99162.13;4415931;32;20068;-69
2020/12/07 06:09:20;;;;;;;1.50;1.50;;;;;;;1.54;100.00;99022.19;4404056;32;20099;-70
2020/12/07 06:12:10;;;;;;;1.95;1.85;;;;;;;2.33;100.00;99164.31;4412062;32;20089;-69
2020/12/07 06:14:36;;;;;;;1.52;1.52;;;;;;;1.65;100.00;99058.53;4418582;32;20191;-71
2020/12/07 06:17:02;;;;;;;2.33;2.22;;;;;;;2.35;100.00;99161.50;4410447;32;20091;-69
2020/12/07 06:19:32;;;;;;;1.50;1.50;;;;;;;2.36;100.00;99173.66;4411066;32;20065;-69
2020/12/07 06:22:00;;;;;;;1.50;1.50;;;;;;;2.35;100.00;99177.34;4414455;32;20453;-70
2020/12/07 06:24:41;;;;;;;1.75;1.75;;;;;;;2.38;100.00;99185.69;4399913;32;20433;-68
2020/12/07 06:27:08;;;;;;;2.30;2.20;;;;;;;2.33;100.00;99181.97;4405723;32;20084;-70
2020/12/07 06:29:56;;;;;;;1.87;1.80;;;;;;;2.35;100.00;99183.41;4393959;32;20399;-70
2020/12/07 06:32:22;;;;;;;1.75;1.75;;;;;;;2.39;100.00;99189.12;4391739;32;20077;-69
2020/12/07 06:34:51;;;;;;;1.85;1.85;;;;;;;2.26;100.00;99163.47;4407665;32;20679;-70
2020/12/07 06:37:16;;;;;;;1.60;1.60;;;;;;;2.39;100.00;99189.12;4415136;32;20065;-70
2020/12/07 06:39:45;;;;;;;1.77;1.77;;;;;;;2.16;100.00;99155.87;4409711;32;20088;-69
2020/12/07 06:42:11;;;;;;;2.97;2.87;;;;;;;2.41;100.00;99181.81;4385238;32;20645;-69
2020/12/07 06:44:45;;;;;;;1.70;1.70;;;;;;;2.38;100.00;99188.31;4406911;32;20069;-68
2020/12/07 06:47:16;;;;;;;2.35;2.25;;;;;;;2.34;100.00;99187.06;4402887;32;20065;-68
2020/12/07 06:52:11;;;;;;;2.22;2.12;;;;;;;2.36;100.00;99200.06;4410992;32;20077;-68
2020/12/07 06:55:06;;;;;;;1.60;1.60;;;;;;;2.25;100.00;99191.66;4409832;32;20075;-67
2020/12/07 06:57:42;;;;;;;2.35;2.25;;;;;;;2.39;100.00;99204.94;4415561;32;20080;-69
2020/12/07 07:00:11;;;;;;;1.70;1.70;;;;;;;2.39;100.00;99211.03;4420267;32;20155;-71
2020/12/07 07:02:49;;;;;;;2.25;2.15;;;;;;;2.41;100.00;99209.03;4439090;32;20479;-70
2020/12/07 07:05:24;;;;;;;1.70;1.70;;;;;;;2.42;100.00;99215.13;4415179;32;20076;-71
2020/12/07 07:07:49;;;;;;;2.15;2.05;;;;;;;2.45;100.00;99222.66;4417091;32;20098;-70
2020/12/07 07:10:15;;;;;;;1.77;1.77;;;;;;;2.45;100.00;99217.41;4411972;32;20657;-68
2020/12/07 07:12:41;;;;;;;1.60;1.60;;;;;;;2.46;100.00;99220.84;4420496;32;20069;-67
2020/12/07 07:15:08;;;;;;;1.70;1.70;;;;;;;2.45;100.00;99220.03;4420986;32;20084;-67
2020/12/07 07:17:35;;;;;;;2.00;1.90;;;;;;;2.47;100.00;99214.53;4402517;32;20072;-68
2020/12/07 07:20:02;;;;;;;2.10;2.00;;;;;;;2.43;100.00;99214.94;4431271;32;20106;-67
2020/12/07 07:22:27;;;;;;;2.75;2.55;;;;;;;2.47;100.00;99223.28;4426104;32;20606;-72
2020/12/07 07:30:04;;;;;;;1.70;1.70;;;;;;;2.46;100.00;99219.00;4413505;32;20740;-67
2020/12/07 07:32:29;;;;;;;1.60;1.60;;;;;;;2.48;100.00;99224.91;4393243;32;20081;-66
2020/12/07 07:34:55;;;;;;;1.60;1.60;;;;;;;2.48;100.00;99230.19;4421276;32;20616;-69
2020/12/07 07:37:20;;;;;;;3.10;2.03;;;;;;;2.53;100.00;99222.50;4398055;32;20079;-67
2020/12/07 07:39:49;;;;;;;1.60;1.60;;;;;;;2.55;100.00;99222.31;4419448;32;20077;-70
2020/12/07 07:42:15;;;;;;;1.60;1.60;;;;;;;2.49;100.00;99223.91;4428988;32;20104;-68
2020/12/07 07:44:43;;;;;;;1.70;1.70;;;;;;;2.54;100.00;99223.34;4402154;32;20201;-68
2020/12/07 07:47:14;;;;;;;1.75;1.73;;;;;;;2.55;100.00;99215.22;4431778;32;20091;-70
2020/12/07 07:50:51;;;;;;;1.62;1.62;;;;;;;2.54;100.00;99223.34;4407247;32;20080;-66
2020/12/07 08:17:17;;;;;;;1.95;1.85;;;;;;;2.74;100.00;99261.25;4375200;32;20073;-68
2020/12/07 08:19:44;;;;;;;2.03;1.95;;;;;;;2.77;100.00;99268.75;4411259;32;20543;-67
2020/12/07 08:22:17;;;;;;;2.05;1.95;;;;;;;2.79;100.00;99271.22;4409984;32;20093;-69
2020/12/07 08:24:57;;;;;;;2.50;2.40;;;;;;;2.77;100.00;99271.41;4403318;32;20072;-71
2020/12/07 08:27:33;;;;;;;1.60;1.60;;;;;;;2.78;100.00;99272.25;4396706;32;20122;-69
2020/12/07 08:29:59;;;;;;;1.90;1.85;;;;;;;2.77;100.00;99271.41;4394103;32;20088;-70
2020/12/07 08:32:25;;;;;;;2.08;1.95;;;;;;;2.79;100.00;99276.50;4410299;32;20099;-69
2020/12/07 08:34:50;;;;;;;1.77;1.75;;;;;;;2.86;100.00;99279.19;4405681;32;20068;-70
2020/12/07 08:37:16;;;;;;;1.77;1.77;;;;;;;2.86;100.00;99280.00;4403410;32;20733;-70
2020/12/07 08:39:41;;;;;;;3.10;2.87;;;;;;;2.91;100.00;99298.72;4410411;32;20084;-69
2020/12/07 08:42:07;;;;;;;2.15;2.08;;;;;;;1.65;100.00;99093.59;4408078;32;20617;-71
2020/12/07 08:44:32;;;;;;;2.22;2.12;;;;;;;2.34;100.00;99194.97;4401981;32;20095;-70
2020/12/07 08:46:58;;;;;;;4.80;3.03;;;;;;;2.98;100.00;99290.84;4390519;32;20406;-69
2020/12/07 08:49:23;;;;;;;1.70;1.70;;;;;;;2.99;100.00;99293.28;4407909;32;20093;-69
2020/12/07 08:51:49;;;;;;;1.60;1.60;;;;;;;3.03;100.00;99300.84;4405513;32;20080;-69
2020/12/07 08:54:14;;;;;;;2.37;2.28;;;;;;;2.90;100.00;99281.25;4418920;32;20799;-69
2020/12/07 08:56:40;;;;;;;1.75;1.75;;;;;;;3.06;100.00;99303.09;4417122;32;20100;-68
2020/12/07 08:59:05;;;;;;;1.73;1.73;;;;;;;3.07;100.00;99302.06;4409043;32;20524;-70
2020/12/07 09:01:31;;;;;;;1.60;1.60;;;;;;;3.10;100.00;99310.41;4406740;32;20154;-68
2020/12/07 09:03:57;;;;;;;1.67;1.67;;;;;;;3.12;100.00;99312.88;4418911;32;20069;-69
2020/12/07 09:06:22;;;;;;;1.60;1.60;;;;;;;3.12;100.00;99318.16;4408426;32;20820;-68
2020/12/07 09:08:48;;;;;;;2.10;2.00;;;;;;;3.14;100.00;99321.41;4420451;32;20100;-69
2020/12/07 09:11:20;;;;;;;2.65;2.55;;;;;;;3.14;100.00;99324.06;4424650;32;20087;-69
2020/12/07 09:13:46;;;;;;;3.17;2.93;;;;;;;3.15;100.00;99330.97;4404526;32;20085;-68
2020/12/07 09:16:11;;;;;;;1.80;1.80;;;;;;;3.19;100.00;99326.94;4400092;32;20079;-69
2020/12/07 09:18:37;;;;;;;2.33;2.22;;;;;;;3.18;100.00;99341.16;4407123;32;20065;-69
2020/12/07 09:21:03;;;;;;;2.35;2.25;;;;;;;3.20;100.00;99329.38;4422440;32;20083;-69
2020/12/07 09:23:29;;;;;;;1.80;1.80;;;;;;;3.22;100.00;99339.75;4421317;32;20222;-68
2020/12/07 09:25:54;;;;;;;2.10;2.00;;;;;;;3.25;100.00;99342.03;4418316;32;20137;-68
2020/12/07 09:28:20;;;;;;;1.80;1.80;;;;;;;3.20;100.00;99336.50;4410341;32;20356;-70
2020/12/07 09:30:45;;;;;;;2.00;1.90;;;;;;;3.30;100.00;99350.19;4403011;32;20071;-70
2020/12/07 09:33:11;;;;;;;1.83;1.80;;;;;;;3.33;100.00;99363.03;4394810;32;20092;-69
2020/12/07 09:35:37;;;;;;;1.70;1.70;;;;;;;3.36;100.00;99362.63;4415903;32;20072;-68
2020/12/07 09:38:02;;;;;;;3.55;3.25;;;;;;;3.37;100.00;99361.59;4410476;32;20121;-67
2020/12/07 09:40:28;;;;;;;4.00;2.45;;;;;;;3.38;100.00;99363.25;4404789;32;20598;-69
2020/12/07 09:42:53;;;;;;;1.80;1.80;;;;;;;3.41;100.00;99366.50;4421731;32;20154;-68
2020/12/07 09:45:18;;;;;;;2.00;1.90;;;;;;;3.41;100.00;99371.81;4420486;32;20088;-68
2020/12/07 09:47:44;;;;;;;1.70;1.70;;;;;;;3.38;100.00;99363.25;4392620;32;20108;-67
2020/12/07 09:50:09;;;;;;;2.05;1.95;;;;;;;3.43;100.00;99370.56;4423973;32;20065;-69
2020/12/07 09:52:35;;;;;;;2.10;2.00;;;;;;;3.44;100.00;99372.22;4404488;32;20065;-69
2020/12/07 09:55:01;;;;;;;2.37;2.28;;;;;;;3.43;100.00;99369.78;4417001;32;20172;-69
2020/12/07 09:57:26;;;;;;;1.90;1.80;;;;;;;3.45;100.00;99379.16;4411690;32;20747;-67
2020/12/07 09:59:51;;;;;;;1.80;1.80;;;;;;;3.31;100.00;99353.63;4398840;32;20068;-69
2020/12/07 10:02:17;;;;;;;1.80;1.80;;;;;;;3.47;100.00;99368.41;4406727;32;20077;-69
2020/12/07 10:04:42;;;;;;;2.55;2.45;;;;;;;3.50;100.00;99386.47;4397509;32;20073;-69
2020/12/07 10:07:08;;;;;;;2.37;2.28;;;;;;;3.54;100.00;99385.09;4394288;32;20650;-69
2020/12/07 10:09:34;;;;;;;2.00;1.90;;;;;;;3.55;100.00;99379.62;4398646;32;20078;-69
2020/12/07 10:11:59;;;;;;;1.70;1.70;;;;;;;3.57;100.00;99382.06;4389162;32;20175;-70
2020/12/07 10:14:25;;;;;;;2.90;2.72;;;;;;;3.59;100.00;99385.34;4402694;32;20095;-72
2020/12/07 10:16:50;;;;;;;1.80;1.80;;;;;;;3.46;100.00;99366.75;4393993;32;20085;-68
2020/12/07 10:19:15;;;;;;;1.85;1.80;;;;;;;3.56;100.00;99386.53;4414640;32;20079;-68
2020/12/07 10:21:41;;;;;;;1.95;1.87;;;;;;;3.56;100.00;99377.78;4406816;32;20077;-67
2020/12/07 10:24:06;;;;;;;1.95;1.85;;;;;;;3.57;100.00;99382.88;4400337;32;20076;-68
2020/12/07 10:26:32;;;;;;;1.70;1.70;;;;;;;3.54;100.00;99379.81;4392172;32;20092;-69
2020/12/07 10:28:58;;;;;;;2.05;1.95;;;;;;;3.58;100.00;99378.41;4408138;32;20187;-69
2020/12/07 10:31:23;;;;;;;2.35;2.25;;;;;;;3.64;100.00;99382.09;4395456;32;20069;-70
2020/12/07 10:33:49;;;;;;;2.22;2.00;;;;;;;3.65;100.00;99378.44;4397338;32;20282;-71
2020/12/07 10:36:16;;;;;;;2.22;2.12;;;;;;;3.69;100.00;99375.22;4400153;32;21013;-69
2020/12/07 10:38:41;;;;;;;1.80;1.80;;;;;;;3.73;100.00;99380.94;4400976;32;20069;-69
2020/12/07 10:41:07;;;;;;;2.00;1.90;;;;;;;3.58;100.00;99373.12;4394552;32;20068;-69
2020/12/07 10:43:32;;;;;;;1.67;1.67;;;;;;;3.76;100.00;99386.63;4399145;32;20514;-68
2020/12/07 10:45:58;;;;;;;1.70;1.70;;;;;;;3.80;100.00;99386.25;4403127;32;20639;-69
2020/12/07 10:48:23;;;;;;;1.70;1.70;;;;;;;3.84;100.00;99387.47;4404476;32;20060;-69
2020/12/07 10:50:48;;;;;;;1.83;1.83;;;;;;;3.68;100.00;99370.13;4409097;32;20158;-70
2020/12/07 10:53:14;;;;;;;1.60;1.60;;;;;;;3.75;100.00;99379.72;4402718;32;20940;-69
2020/12/07 10:55:42;;;;;;;2.00;1.90;;;;;;;3.70;100.00;99371.53;4424221;32;20741;-71
2020/12/07 10:58:08;;;;;;;2.28;2.17;;;;;;;3.82;100.00;99384.22;4423930;32;20068;-70
2020/12/07 11:00:33;;;;;;;1.73;1.73;;;;;;;3.86;100.00;99390.75;4416983;32;20126;-69
2020/12/07 11:02:59;;;;;;;1.95;1.87;;;;;;;3.84;100.00;99388.28;4407538;32;20585;-69
2020/12/07 11:05:24;;;;;;;1.83;1.75;;;;;;;3.85;100.00;99382.00;4426974;32;20374;-70
2020/12/07 11:07:52;;;;;;;2.30;2.20;;;;;;;3.84;100.00;99382.19;4408403;32;20457;-69
2020/12/07 11:10:18;;;;;;;1.58;1.58;;;;;;;3.87;100.00;99384.44;4431978;32;20095;-69
2020/12/07 11:12:47;;;;;;;1.95;1.85;;;;;;;3.83;100.00;99372.62;4429043;32;21049;-68
2020/12/07 11:15:12;;;;;;;2.35;2.25;;;;;;;3.73;100.00;99350.00;4415614;32;20116;-70
2020/12/07 11:17:37;;;;;;;2.10;2.00;;;;;;;3.94;100.00;99382.63;4423823;32;20156;-69
2020/12/07 11:20:03;;;;;;;2.10;2.00;;;;;;;3.97;100.00;99386.72;4414000;32;20081;-70
2020/12/07 11:22:28;;;;;;;2.22;2.03;;;;;;;3.87;100.00;99379.97;4412534;32;20510;-70
2020/12/07 11:24:54;;;;;;;1.80;1.80;;;;;;;3.66;100.00;99343.06;4412780;32;20374;-70
2020/12/07 11:27:19;;;;;;;1.80;1.80;;;;;;;4.00;100.00;99387.16;4430715;32;20056;-70
2020/12/07 11:29:45;;;;;;;1.65;1.65;;;;;;;3.94;100.00;99370.22;4408094;32;20080;-68
2020/12/07 11:32:10;;;;;;;2.08;1.98;;;;;;;4.05;100.00;99387.38;4430817;32;20067;-69
2020/12/07 11:34:35;;;;;;;1.70;1.70;;;;;;;4.09;100.00;99385.97;4425856;32;20815;-69
2020/12/07 11:37:01;;;;;;;2.10;2.00;;;;;;;4.16;100.00;99385.97;4417615;32;20076;-69
2020/12/07 11:39:49;;;;;;;2.15;2.05;;;;;;;4.23;100.00;99383.34;4420343;32;20171;-70
2020/12/07 11:42:21;;;;;;;1.95;1.87;;;;;;;4.32;100.00;99390.09;4425599;32;20559;-69
2020/12/07 11:44:47;;;;;;;2.22;2.12;;;;;;;4.36;100.00;99387.84;4421772;32;20121;-69
2020/12/07 11:47:14;;;;;;;1.80;1.80;;;;;;;4.41;100.00;99386.22;4416925;32;20083;-69
2020/12/07 11:49:39;;;;;;;1.75;1.75;;;;;;;4.45;100.00;99386.66;4430272;32;20648;-69
2020/12/07 11:52:05;;;;;;;2.17;2.08;;;;;;;4.49;99.70;99385.25;4422195;32;20132;-69
2020/12/07 11:54:30;;;;;;;2.40;2.30;;;;;;;4.56;100.00;99382.63;4425653;32;20613;-70
2020/12/07 11:56:56;;;;;;;1.80;1.80;;;;;;;4.61;100.00;99388.12;4413566;32;20300;-70
2020/12/07 11:59:21;;;;;;;1.80;1.80;;;;;;;4.32;99.69;99334.50;4427728;32;20061;-69
2020/12/07 12:01:46;;;;;;;1.60;1.60;;;;;;;4.66;100.00;99386.50;4405190;32;20397;-69
2020/12/07 12:04:12;;;;;;;2.10;2.00;;;;;;;4.72;99.71;99384.06;4411574;32;20061;-71
2020/12/07 12:06:38;;;;;;;2.58;2.47;;;;;;;4.75;100.00;99397.72;4426220;32;20095;-72
2020/12/07 12:12:26;;;;;;;3.53;3.17;;;;;;;4.75;99.91;99392.41;4414987;32;20460;-69
2020/12/07 12:14:51;;;;;;;1.70;1.70;;;;;;;4.73;100.00;99397.09;4418234;32;20076;-69
2020/12/07 12:17:16;;;;;;;2.03;1.92;;;;;;;4.72;98.96;99395.44;4411377;32;20069;-70
2020/12/07 12:19:42;;;;;;;1.83;1.80;;;;;;;4.76;99.82;99396.69;4420283;32;20083;-68